Koushinmaru No.5 — JL6695 — position and weather

sailwx.info

Track history (hours):
 
Tides and Currents Weather Stations Pressure Air Temp Water Temp Dewpoint Dewpoint Depression Visibility Wind Speed Wind Dir Waves Ship Positions

Koushinmaru No.5

Last reported at 2015-Apr-01 17:32 UTC. Time now 2015-Apr-01 17:53 UTC.
Position N 35°17' E 140°30'.

Length 75 m; draft 4 m.

Type: Cargo ship. MMSI: 431301703.

Date/timePositionNaut miles runAvg speedWind from/ knotsBaromVisibWave heightAir tempDewpointWater temp
2015-Apr-01 17:32N 35°17' E 140°30'1111.2
2015-Apr-01 16:32N 35°26' E 140°39'  
2015-Mar-28 15:33N 35°55' E 140°41'1 0.9
2015-Mar-28 14:20N 35°55' E 140°40'0 0.0
2015-Mar-28 10:29N 35°55' E 140°40'0 0.0
2015-Mar-28 07:21N 35°55' E 140°40'0 0.0
2015-Mar-28 02:08N 35°55' E 140°40'0 0.0
2015-Mar-28 01:16N 35°55' E 140°40'0 0.0
2015-Mar-27 22:33N 35°55' E 140°40'4 4.4
2015-Mar-27 21:33N 35°59' E 140°42'0 0.0
2015-Mar-27 20:33N 35°59' E 140°42'0 0.1
2015-Mar-27 19:33N 35°59' E 140°42'31 0.6
2015-Mar-25 18:30N 35°28' E 140°44'1311.4
2015-Mar-25 17:22N 35°18' E 140°35'2412.2
2015-Mar-25 15:26N 35°01' E 140°14'1612.6
2015-Mar-25 14:10N 34°53' E 139°58'711.8
2015-Mar-25 13:32N 34°52' E 139°49'1111.6
2015-Mar-25 12:33N 35°03' E 139°44'1212.1
2015-Mar-25 11:33N 35°15' E 139°46'1110.8
2015-Mar-25 10:33N 35°25' E 139°44'1211.7
2015-Mar-25 09:33N 35°33' E 139°55'8 7.8
2015-Mar-25 08:33N 35°40' E 139°57'0 0.0
2015-Mar-25 07:32N 35°40' E 139°57'0 0.0
2015-Mar-25 06:33N 35°40' E 139°57'0 0.0
2015-Mar-25 05:33N 35°40' E 139°57'0 0.0
2015-Mar-25 04:33N 35°40' E 139°57'0 0.0
2015-Mar-25 03:33N 35°40' E 139°57'0 0.0
2015-Mar-25 02:34N 35°40' E 139°57'0 0.0
2015-Mar-25 01:33N 35°40' E 139°57'0 0.0
2015-Mar-25 00:33N 35°40' E 139°57'0 0.0
2015-Mar-24 23:33N 35°40' E 139°57'0 0.0
2015-Mar-24 22:33N 35°40' E 139°57'1 0.0
2015-Mar-23 02:33N 35°41' E 139°57'5 4.9
2015-Mar-23 01:33N 35°36' E 139°57'1010.3
2015-Mar-23 00:33N 35°28' E 139°50'10 9.8
2015-Mar-22 23:31N 35°19' E 139°44'9 9.4
2015-Mar-22 22:34N 35°10' E 139°46'1010.2
2015-Mar-22 21:33N 35°02' E 139°39'  
Track history (hours):
 
Tides and Currents Weather Stations Pressure Air Temp Water Temp Dewpoint Dewpoint Depression Visibility Wind Speed Wind Dir Waves Ship Positions

Koushinmaru No.5

Last reported at 2015-Apr-01 17:32 UTC. Time now 2015-Apr-01 17:53 UTC.
Position N 35°17' E 140°30'.

Length 75 m; draft 4 m.

Type: Cargo ship. MMSI: 431301703.

Date/timePositionNaut miles runAvg speedWind from/ knotsBaromVisibWave heightAir tempDewpointWater temp
2015-Apr-01 17:32N 35°17' E 140°30'1111.2
2015-Apr-01 16:32N 35°26' E 140°39'  
2015-Mar-28 15:33N 35°55' E 140°41'1 0.9
2015-Mar-28 14:20N 35°55' E 140°40'0 0.0
2015-Mar-28 10:29N 35°55' E 140°40'0 0.0
2015-Mar-28 07:21N 35°55' E 140°40'0 0.0
2015-Mar-28 02:08N 35°55' E 140°40'0 0.0
2015-Mar-28 01:16N 35°55' E 140°40'0 0.0
2015-Mar-27 22:33N 35°55' E 140°40'4 4.4
2015-Mar-27 21:33N 35°59' E 140°42'0 0.0
2015-Mar-27 20:33N 35°59' E 140°42'0 0.1
2015-Mar-27 19:33N 35°59' E 140°42'31 0.6
2015-Mar-25 18:30N 35°28' E 140°44'1311.4
2015-Mar-25 17:22N 35°18' E 140°35'2412.2
2015-Mar-25 15:26N 35°01' E 140°14'1612.6
2015-Mar-25 14:10N 34°53' E 139°58'711.8
2015-Mar-25 13:32N 34°52' E 139°49'1111.6
2015-Mar-25 12:33N 35°03' E 139°44'1212.1
2015-Mar-25 11:33N 35°15' E 139°46'1110.8
2015-Mar-25 10:33N 35°25' E 139°44'1211.7
2015-Mar-25 09:33N 35°33' E 139°55'8 7.8
2015-Mar-25 08:33N 35°40' E 139°57'0 0.0
2015-Mar-25 07:32N 35°40' E 139°57'0 0.0
2015-Mar-25 06:33N 35°40' E 139°57'0 0.0
2015-Mar-25 05:33N 35°40' E 139°57'0 0.0
2015-Mar-25 04:33N 35°40' E 139°57'0 0.0
2015-Mar-25 03:33N 35°40' E 139°57'0 0.0
2015-Mar-25 02:34N 35°40' E 139°57'0 0.0
2015-Mar-25 01:33N 35°40' E 139°57'0 0.0
2015-Mar-25 00:33N 35°40' E 139°57'0 0.0
2015-Mar-24 23:33N 35°40' E 139°57'0 0.0
2015-Mar-24 22:33N 35°40' E 139°57'1 0.0
2015-Mar-23 02:33N 35°41' E 139°57'5 4.9
2015-Mar-23 01:33N 35°36' E 139°57'1010.3
2015-Mar-23 00:33N 35°28' E 139°50'10 9.8
2015-Mar-22 23:31N 35°19' E 139°44'9 9.4
2015-Mar-22 22:34N 35°10' E 139°46'1010.2
2015-Mar-22 21:33N 35°02' E 139°39'  

Dump ship's entire track history